< < Back
Terminal Aerodrome Forecast


Current Version              Previous Versions:   1  2  3  4  5  6  7  8  9  

Terminal Aerodrome Forecast

102
FTUS42 KCHS 311100
TAFSAV
TAF
KSAV 311139Z 3112/0112 32007KT P6SM SCT045
     FM311900 30008KT P6SM FEW045
     FM010000 28005KT P6SM SKC
     FM010800 27013G20KT P6SM SCT025 BKN050=

Latest METAR

863
SAUS80 KWBC 311900
MTRSAV
METAR KSAV 311853Z 28006KT 10SM SCT065 22/07 A2981 RMK AO2 SLP094
T02220072


USA.gov is the U.S. government's official web portal to all federal, state and local government web resources and services.